createdAt,value
2022-10-26T00:00:00.389Z,47.29
2022-10-26T00:02:45.653Z,47.48
2022-10-26T00:05:30.839Z,46.53
2022-10-26T00:08:15.520Z,47.81
2022-10-26T00:11:00.450Z,47.86
2022-10-26T00:13:45.117Z,48.11
2022-10-26T00:16:29.975Z,46.52
2022-10-26T00:19:14.631Z,46.30
2022-10-26T00:21:59.583Z,47.66
2022-10-26T00:24:44.310Z,49.17
2022-10-26T00:27:29.020Z,49.99
2022-10-26T00:30:13.817Z,47.50
2022-10-26T00:32:58.561Z,50.94
2022-10-26T00:35:46.487Z,50.50
2022-10-26T00:38:31.395Z,49.97
2022-10-26T00:41:16.162Z,50.13
2022-10-26T00:44:01.114Z,49.61
2022-10-26T00:46:45.772Z,50.03
2022-10-26T00:49:30.815Z,49.29
2022-10-26T00:52:15.520Z,49.83
2022-10-26T00:55:00.363Z,50.51
2022-10-26T00:57:45.105Z,49.82
2022-10-26T01:00:29.794Z,49.59
2022-10-26T01:03:14.490Z,49.76
2022-10-26T01:05:59.663Z,50.61
2022-10-26T01:08:44.239Z,51.17
2022-10-26T01:11:28.866Z,49.99
2022-10-26T01:14:13.684Z,50.04
2022-10-26T01:16:58.386Z,49.48
2022-10-26T01:19:43.113Z,48.64
2022-10-26T01:22:27.834Z,48.95
2022-10-26T01:25:12.615Z,50.33
2022-10-26T01:27:57.334Z,51.33
2022-10-26T01:30:42.063Z,52.34
2022-10-26T01:33:26.804Z,51.28
2022-10-26T01:36:11.621Z,51.16
2022-10-26T01:38:56.485Z,51.07
2022-10-26T01:41:41.221Z,52.87
2022-10-26T01:44:26.057Z,50.99
2022-10-26T01:47:10.721Z,51.30
2022-10-26T01:49:55.529Z,50.75
2022-10-26T01:52:40.187Z,48.97
2022-10-26T01:55:24.976Z,48.84
2022-10-26T01:58:09.606Z,49.24
2022-10-26T02:00:54.291Z,48.81
2022-10-26T02:03:38.969Z,49.64
2022-10-26T02:06:23.743Z,49.20
2022-10-26T02:09:08.455Z,49.72
2022-10-26T02:11:53.255Z,49.60
2022-10-26T02:14:37.925Z,50.35
2022-10-26T02:17:22.705Z,50.67
2022-10-26T02:20:07.467Z,50.78
2022-10-26T02:22:52.115Z,50.50
2022-10-26T02:25:36.815Z,50.82
2022-10-26T02:28:21.504Z,50.03
2022-10-26T02:31:06.149Z,49.92
2022-10-26T02:33:50.956Z,49.96
2022-10-26T02:36:35.629Z,49.83
2022-10-26T02:39:20.416Z,49.50
2022-10-26T02:42:05.201Z,50.42
2022-10-26T02:44:50.019Z,51.29
2022-10-26T02:47:34.773Z,51.35
2022-10-26T02:50:19.607Z,51.40
2022-10-26T02:53:04.370Z,51.97
2022-10-26T02:55:49.228Z,52.75
2022-10-26T02:58:33.892Z,53.42
2022-10-26T03:01:18.755Z,55.03
2022-10-26T03:04:03.414Z,55.72
2022-10-26T03:06:48.776Z,56.58
2022-10-26T03:09:33.506Z,58.12
2022-10-26T03:12:18.234Z,60.33
2022-10-26T03:18:05.708Z,63.25
2022-10-26T03:20:50.564Z,63.60
2022-10-26T03:23:35.185Z,63.49
2022-10-26T03:26:19.973Z,63.58
2022-10-26T03:29:04.932Z,62.94
2022-10-26T03:31:49.631Z,62.59
2022-10-26T03:34:34.377Z,61.86
2022-10-26T03:37:19.076Z,62.29
2022-10-26T03:40:03.801Z,63.08
2022-10-26T03:42:48.742Z,63.56
2022-10-26T03:45:33.894Z,64.00
2022-10-26T03:48:18.676Z,63.00
2022-10-26T03:51:03.394Z,63.79
2022-10-26T03:53:47.896Z,64.19
2022-10-26T03:56:32.736Z,65.49
2022-10-26T03:59:17.420Z,64.72
2022-10-26T04:02:02.242Z,65.23
2022-10-26T04:04:46.951Z,64.45
2022-10-26T04:07:31.735Z,64.56
2022-10-26T04:10:16.392Z,64.17
2022-10-26T04:13:01.026Z,64.54
2022-10-26T04:15:45.777Z,64.54
2022-10-26T04:18:30.383Z,64.88
2022-10-26T04:21:15.146Z,65.51
2022-10-26T04:23:59.809Z,65.39
2022-10-26T04:26:44.638Z,65.15
2022-10-26T04:29:29.346Z,66.43
2022-10-26T04:32:13.992Z,67.08
2022-10-26T04:34:58.785Z,67.06
2022-10-26T04:37:43.519Z,65.80
2022-10-26T04:40:28.204Z,65.22
2022-10-26T04:43:12.853Z,65.40
2022-10-26T04:45:57.672Z,66.01
2022-10-26T04:48:42.492Z,66.10
2022-10-26T04:51:27.459Z,67.61
2022-10-26T04:54:12.183Z,67.07
2022-10-26T04:56:57.069Z,66.06
2022-10-26T04:59:41.784Z,65.81
2022-10-26T05:02:26.619Z,65.58
2022-10-26T05:05:14.259Z,64.40
2022-10-26T05:08:00.142Z,64.84
2022-10-26T05:10:45.047Z,65.10
2022-10-26T05:13:29.869Z,64.46
2022-10-26T05:16:14.755Z,64.11
2022-10-26T05:18:59.477Z,64.56
2022-10-26T05:24:29.982Z,64.53
2022-10-26T05:27:14.697Z,65.62
2022-10-26T05:29:59.477Z,66.17
2022-10-26T05:32:44.161Z,67.11
2022-10-26T05:35:28.940Z,67.28
2022-10-26T05:38:13.661Z,67.38
2022-10-26T05:40:59.035Z,65.77
2022-10-26T05:43:43.991Z,67.29
2022-10-26T05:46:28.744Z,66.63
2022-10-26T05:49:13.575Z,66.44
2022-10-26T05:51:58.310Z,66.06
2022-10-26T05:54:43.044Z,66.07
2022-10-26T05:57:27.629Z,66.14
2022-10-26T06:00:12.354Z,65.59
2022-10-26T06:02:57.094Z,66.89
2022-10-26T06:05:42.001Z,68.22
2022-10-26T06:08:26.732Z,67.11
2022-10-26T06:11:11.492Z,67.99
2022-10-26T06:13:56.300Z,67.63
2022-10-26T06:16:41.077Z,66.83
2022-10-26T06:19:25.982Z,67.25
2022-10-26T06:22:10.652Z,66.89
2022-10-26T06:24:55.464Z,67.42
2022-10-26T06:27:40.190Z,67.18
2022-10-26T06:30:25.028Z,67.23
2022-10-26T06:33:18.200Z,67.45
2022-10-26T06:36:13.637Z,66.83
2022-10-26T06:38:58.527Z,67.77
2022-10-26T06:41:43.259Z,67.45
2022-10-26T06:44:28.228Z,67.65
2022-10-26T06:47:12.994Z,66.93
2022-10-26T06:49:57.816Z,67.20
2022-10-26T06:52:42.444Z,66.90
2022-10-26T06:55:27.132Z,67.09
2022-10-26T06:58:11.743Z,67.10
2022-10-26T07:00:56.475Z,67.03
2022-10-26T07:03:41.321Z,67.08
2022-10-26T07:06:26.013Z,66.61
2022-10-26T07:09:10.764Z,66.66
2022-10-26T07:11:55.486Z,66.41
2022-10-26T07:14:40.234Z,66.83
2022-10-26T07:17:24.853Z,66.27
2022-10-26T07:20:09.821Z,65.66
2022-10-26T07:22:54.613Z,66.82
2022-10-26T07:25:39.393Z,66.81
2022-10-26T07:28:24.210Z,66.21
2022-10-26T07:31:09.017Z,65.86
2022-10-26T07:33:53.737Z,66.41
2022-10-26T07:36:38.673Z,66.64
2022-10-26T07:39:23.492Z,66.57
2022-10-26T07:42:08.081Z,67.09
2022-10-26T07:44:52.905Z,67.17
2022-10-26T07:47:37.580Z,66.44
2022-10-26T07:50:22.453Z,65.37
2022-10-26T07:53:07.255Z,68.21
2022-10-26T07:55:52.024Z,68.45
2022-10-26T07:58:36.816Z,67.76
2022-10-26T08:01:21.610Z,67.33
2022-10-26T08:04:06.811Z,69.29
2022-10-26T08:06:51.558Z,69.11
2022-10-26T08:09:36.381Z,67.82
2022-10-26T08:12:21.112Z,69.25
2022-10-26T08:15:05.853Z,69.63
2022-10-26T08:17:50.870Z,69.93
2022-10-26T08:20:35.880Z,69.54
2022-10-26T08:23:20.576Z,68.46
2022-10-26T08:26:05.471Z,67.52
2022-10-26T08:28:50.148Z,66.54
2022-10-26T08:31:34.921Z,67.76
2022-10-26T08:34:19.741Z,66.93
2022-10-26T08:37:04.477Z,63.50
2022-10-26T08:39:52.094Z,63.31
2022-10-26T08:42:39.405Z,63.07
2022-10-26T08:45:29.580Z,61.52
2022-10-26T08:48:16.832Z,65.14
2022-10-26T08:51:01.697Z,62.84
2022-10-26T08:53:46.508Z,64.24
2022-10-26T08:56:31.115Z,63.97
2022-10-26T08:59:15.888Z,63.51
2022-10-26T09:02:00.707Z,63.15
2022-10-26T09:04:45.420Z,66.08
2022-10-26T09:07:30.207Z,62.81
2022-10-26T09:10:15.029Z,64.83
2022-10-26T09:13:00.209Z,65.52
2022-10-26T09:15:44.949Z,63.72
2022-10-26T09:18:29.570Z,62.34
2022-10-26T09:21:14.385Z,62.92
2022-10-26T09:23:59.148Z,65.17
2022-10-26T09:26:43.788Z,65.13
2022-10-26T09:29:28.418Z,65.86
2022-10-26T09:32:13.235Z,64.83
2022-10-26T09:34:57.835Z,64.57
2022-10-26T09:37:42.525Z,65.54
2022-10-26T09:40:27.324Z,64.38
2022-10-26T09:43:12.080Z,64.72
2022-10-26T09:45:57.155Z,63.79
2022-10-26T09:48:42.218Z,64.25
2022-10-26T09:51:26.907Z,63.64
2022-10-26T09:54:11.683Z,62.37
2022-10-26T09:56:56.377Z,62.02
2022-10-26T09:59:41.059Z,62.38
2022-10-26T10:02:25.979Z,61.00
2022-10-26T10:05:10.724Z,61.63
2022-10-26T10:07:55.419Z,59.28
2022-10-26T10:10:40.099Z,60.78
2022-10-26T10:13:24.933Z,60.44
2022-10-26T10:16:09.743Z,60.77
2022-10-26T10:18:54.427Z,62.94
2022-10-26T10:21:39.392Z,62.38
2022-10-26T10:24:24.019Z,62.72
2022-10-26T10:27:08.921Z,62.23
2022-10-26T10:29:53.505Z,58.35
2022-10-26T10:32:41.279Z,58.23
2022-10-26T10:35:26.195Z,59.68
2022-10-26T10:38:10.973Z,60.56
2022-10-26T10:40:55.806Z,62.42
2022-10-26T10:43:40.536Z,58.61
2022-10-26T10:46:25.345Z,59.79
2022-10-26T10:49:10.089Z,59.49
2022-10-26T10:51:54.823Z,58.30
2022-10-26T10:54:39.646Z,59.00
2022-10-26T10:57:24.476Z,59.83
2022-10-26T11:00:09.298Z,58.86
2022-10-26T11:02:54.153Z,58.68
2022-10-26T11:05:40.106Z,59.32
2022-10-26T11:08:24.834Z,60.60
2022-10-26T11:11:09.655Z,58.64
2022-10-26T11:13:54.354Z,57.59
2022-10-26T11:16:39.230Z,58.64
2022-10-26T11:19:23.966Z,59.74
2022-10-26T11:22:08.724Z,59.51
2022-10-26T11:24:53.510Z,59.16
2022-10-26T11:27:38.716Z,59.57
2022-10-26T11:30:23.426Z,58.02
2022-10-26T11:33:08.019Z,57.82
2022-10-26T11:35:52.729Z,58.59
2022-10-26T11:38:46.651Z,58.05
2022-10-26T11:41:41.274Z,56.97
2022-10-26T11:44:26.554Z,57.38
2022-10-26T11:47:11.301Z,57.40
2022-10-26T11:49:55.976Z,58.69
2022-10-26T11:52:40.724Z,57.12
2022-10-26T11:55:25.653Z,57.16
2022-10-26T11:58:10.405Z,56.07
2022-10-26T12:00:55.122Z,56.53
2022-10-26T12:03:39.960Z,55.95
2022-10-26T12:06:24.673Z,56.05
2022-10-26T12:09:10.406Z,57.59
2022-10-26T12:11:56.104Z,57.17
2022-10-26T12:14:41.595Z,55.73
2022-10-26T12:17:26.239Z,54.27
2022-10-26T12:20:11.096Z,54.22
2022-10-26T12:22:55.655Z,53.79
2022-10-26T12:25:40.453Z,54.24
2022-10-26T12:28:25.166Z,52.66
2022-10-26T12:31:09.874Z,52.73
2022-10-26T12:33:54.606Z,52.61
2022-10-26T12:36:39.336Z,53.04
2022-10-26T12:39:24.160Z,52.82
2022-10-26T12:42:08.858Z,54.19
2022-10-26T12:44:53.646Z,53.18
2022-10-26T12:47:38.277Z,53.11
2022-10-26T12:50:23.132Z,51.49
2022-10-26T12:53:07.817Z,53.06
2022-10-26T12:55:52.395Z,53.22
2022-10-26T12:58:37.062Z,53.27
2022-10-26T13:01:21.874Z,52.61
2022-10-26T13:04:06.646Z,53.61
2022-10-26T13:06:51.267Z,54.65
2022-10-26T13:09:36.073Z,55.13
2022-10-26T13:12:20.679Z,54.96
2022-10-26T13:15:05.640Z,55.36
2022-10-26T13:17:50.256Z,55.03
2022-10-26T13:20:35.156Z,55.40
2022-10-26T13:23:19.920Z,55.59
2022-10-26T13:26:04.775Z,54.84
2022-10-26T13:28:49.449Z,55.05
2022-10-26T13:31:34.209Z,55.70
2022-10-26T13:34:18.913Z,55.51
2022-10-26T13:37:03.586Z,55.81
2022-10-26T13:39:48.343Z,55.10
2022-10-26T13:42:32.937Z,54.81
2022-10-26T13:45:17.837Z,55.44
2022-10-26T13:48:02.709Z,56.09
2022-10-26T13:50:47.753Z,56.30
2022-10-26T13:53:32.340Z,56.25
2022-10-26T13:56:17.214Z,55.87
2022-10-26T13:59:01.802Z,55.36
2022-10-26T14:01:46.683Z,54.65
2022-10-26T14:04:31.365Z,54.97
2022-10-26T14:07:16.031Z,54.18
2022-10-26T14:10:00.832Z,53.93
2022-10-26T14:12:45.533Z,54.24
2022-10-26T14:15:30.365Z,53.97
2022-10-26T14:18:14.986Z,53.92
2022-10-26T14:20:59.743Z,53.43
2022-10-26T14:23:44.480Z,53.51
2022-10-26T14:26:29.321Z,52.97
2022-10-26T14:29:14.052Z,51.22
2022-10-26T14:31:58.837Z,51.85
2022-10-26T14:34:43.508Z,52.06
2022-10-26T14:37:28.300Z,51.17
2022-10-26T14:40:13.016Z,50.00
2022-10-26T14:42:57.772Z,50.44
2022-10-26T14:45:48.659Z,51.40
2022-10-26T14:48:34.444Z,52.27
2022-10-26T14:51:19.166Z,51.98
2022-10-26T14:54:04.167Z,51.88
2022-10-26T14:56:48.931Z,52.28
2022-10-26T14:59:33.764Z,52.84
2022-10-26T15:02:18.514Z,52.81
2022-10-26T15:05:03.229Z,51.43
2022-10-26T15:07:48.222Z,48.96
2022-10-26T15:10:33.225Z,48.48
2022-10-26T15:13:18.093Z,49.36
2022-10-26T15:16:02.859Z,49.90
2022-10-26T15:18:47.758Z,49.82
2022-10-26T15:21:32.417Z,49.99
2022-10-26T15:24:17.329Z,50.41
2022-10-26T15:27:02.030Z,48.32
2022-10-26T15:29:46.832Z,49.13
2022-10-26T15:32:31.591Z,49.78
2022-10-26T15:35:16.295Z,49.58
2022-10-26T15:38:01.305Z,49.15
2022-10-26T15:40:46.272Z,48.34
2022-10-26T15:43:31.157Z,48.98
2022-10-26T15:46:15.871Z,48.17
2022-10-26T15:49:00.760Z,47.85
2022-10-26T15:51:45.411Z,47.28
2022-10-26T15:54:30.221Z,47.05
2022-10-26T15:57:16.762Z,47.71
2022-10-26T16:00:04.110Z,44.92
2022-10-26T16:02:48.946Z,45.33
2022-10-26T16:05:33.846Z,43.97
2022-10-26T16:08:18.707Z,45.01
2022-10-26T16:11:03.461Z,46.19
2022-10-26T16:13:48.261Z,45.63
2022-10-26T16:16:32.909Z,45.69
2022-10-26T16:19:30.440Z,44.58
2022-10-26T16:22:16.061Z,46.31
2022-10-26T16:25:00.836Z,46.18
2022-10-26T16:27:45.623Z,43.40
2022-10-26T16:30:30.731Z,44.42
2022-10-26T16:33:15.894Z,44.54
2022-10-26T16:36:00.708Z,45.12
2022-10-26T16:38:46.047Z,46.29
2022-10-26T16:41:30.808Z,45.73
2022-10-26T16:44:15.781Z,47.62
2022-10-26T16:47:00.972Z,46.56
2022-10-26T16:49:46.313Z,46.63
2022-10-26T16:52:31.187Z,45.85
2022-10-26T16:55:15.975Z,46.05
2022-10-26T16:58:00.786Z,45.21
2022-10-26T17:00:45.560Z,45.03
2022-10-26T17:03:30.334Z,44.55
2022-10-26T17:06:15.092Z,44.46
2022-10-26T17:08:59.861Z,45.44
2022-10-26T17:11:44.631Z,44.86
2022-10-26T17:14:29.458Z,44.82
2022-10-26T17:17:14.437Z,45.53
2022-10-26T17:19:59.222Z,44.27
2022-10-26T17:22:44.103Z,44.43
2022-10-26T17:25:28.780Z,44.57
2022-10-26T17:28:13.734Z,44.24
2022-10-26T17:33:48.109Z,43.21
2022-10-26T17:36:33.442Z,45.30
2022-10-26T17:39:18.095Z,44.98
2022-10-26T17:42:02.989Z,45.56
2022-10-26T17:44:47.767Z,45.29
2022-10-26T17:47:32.466Z,44.10
2022-10-26T17:50:17.103Z,44.96
2022-10-26T17:53:02.098Z,45.17
2022-10-26T17:55:46.990Z,45.25
2022-10-26T17:58:31.595Z,44.45
2022-10-26T18:01:16.567Z,44.20
2022-10-26T18:04:01.541Z,44.92
2022-10-26T18:06:46.295Z,44.86
2022-10-26T18:09:30.924Z,45.30
2022-10-26T18:12:15.713Z,44.49
2022-10-26T18:15:00.380Z,45.15
2022-10-26T18:17:45.118Z,45.29
2022-10-26T18:20:29.786Z,44.86
2022-10-26T18:23:14.649Z,44.78
2022-10-26T18:25:59.545Z,44.56
2022-10-26T18:28:44.327Z,44.49
2022-10-26T18:31:29.094Z,44.29
2022-10-26T18:34:13.884Z,44.67
2022-10-26T18:36:58.705Z,45.48
2022-10-26T18:39:43.400Z,44.97
2022-10-26T18:42:28.200Z,45.63
2022-10-26T18:45:13.038Z,45.06
2022-10-26T18:47:58.214Z,44.46
2022-10-26T18:50:43.405Z,43.98
2022-10-26T18:53:28.430Z,44.97
2022-10-26T18:56:13.666Z,44.79
2022-10-26T18:58:58.374Z,45.28
2022-10-26T19:01:43.329Z,44.91
2022-10-26T19:04:28.447Z,44.43
2022-10-26T19:07:13.113Z,44.67
2022-10-26T19:09:57.753Z,44.76
2022-10-26T19:12:42.574Z,44.70
2022-10-26T19:15:27.406Z,45.16
2022-10-26T19:18:12.087Z,45.84
2022-10-26T19:20:56.891Z,45.08
2022-10-26T19:23:41.649Z,44.59
2022-10-26T19:26:28.758Z,44.76
2022-10-26T19:29:16.913Z,44.87
2022-10-26T19:32:01.563Z,43.92
2022-10-26T19:34:46.324Z,44.96
2022-10-26T19:37:30.989Z,44.53
2022-10-26T19:40:15.720Z,44.23
2022-10-26T19:43:00.470Z,44.30
2022-10-26T19:45:45.214Z,44.55
2022-10-26T19:48:29.974Z,43.88
2022-10-26T19:51:14.813Z,43.64
2022-10-26T19:54:03.221Z,44.27
2022-10-26T19:56:48.863Z,43.71
2022-10-26T19:59:33.887Z,43.52
2022-10-26T20:02:18.525Z,44.10
2022-10-26T20:05:03.283Z,44.25
2022-10-26T20:07:47.993Z,44.65
2022-10-26T20:10:32.806Z,43.78
2022-10-26T20:13:17.616Z,43.02
2022-10-26T20:16:02.326Z,43.63
2022-10-26T20:18:48.855Z,43.90
2022-10-26T20:21:34.269Z,43.70
2022-10-26T20:24:19.044Z,43.74
2022-10-26T20:27:03.723Z,44.17
2022-10-26T20:29:48.385Z,43.41
2022-10-26T20:32:33.326Z,43.03
2022-10-26T20:35:18.128Z,43.16
2022-10-26T20:38:02.922Z,43.09
2022-10-26T20:40:47.585Z,43.65
2022-10-26T20:43:32.339Z,43.51
2022-10-26T20:46:16.984Z,43.46
2022-10-26T20:49:01.942Z,43.30
2022-10-26T20:52:02.670Z,43.08
2022-10-26T20:54:51.441Z,43.32
2022-10-26T20:57:36.188Z,42.86
2022-10-26T21:00:20.962Z,42.58
2022-10-26T21:03:05.701Z,42.88
2022-10-26T21:05:50.396Z,42.82
2022-10-26T21:08:35.088Z,42.97
2022-10-26T21:11:19.783Z,43.26
2022-10-26T21:14:04.596Z,42.53
2022-10-26T21:16:49.494Z,42.72
2022-10-26T21:19:34.266Z,42.92
2022-10-26T21:22:19.048Z,43.47
2022-10-26T21:25:03.775Z,43.69
2022-10-26T21:27:48.904Z,43.25
2022-10-26T21:30:33.854Z,43.58
2022-10-26T21:33:21.296Z,44.09
2022-10-26T21:36:09.058Z,44.16
2022-10-26T21:38:53.778Z,44.03
2022-10-26T21:41:38.557Z,43.74
2022-10-26T21:44:40.078Z,43.66
2022-10-26T21:47:26.369Z,44.13
2022-10-26T21:50:11.149Z,43.47
2022-10-26T21:52:55.814Z,43.41
2022-10-26T21:55:40.542Z,43.73
2022-10-26T21:58:25.293Z,43.26
2022-10-26T22:01:10.226Z,44.23
2022-10-26T22:03:55.255Z,44.75
2022-10-26T22:06:40.044Z,45.04
2022-10-26T22:09:24.850Z,44.43
2022-10-26T22:12:09.698Z,44.32
2022-10-26T22:14:54.488Z,44.25
2022-10-26T22:17:39.444Z,44.14
2022-10-26T22:20:24.244Z,44.21
2022-10-26T22:23:09.007Z,43.23
2022-10-26T22:25:53.776Z,43.58
2022-10-26T22:28:41.575Z,44.00
2022-10-26T22:31:27.776Z,43.56
2022-10-26T22:34:12.601Z,42.88
2022-10-26T22:36:57.347Z,42.63
2022-10-26T22:39:42.183Z,43.68
2022-10-26T22:42:26.882Z,43.73
2022-10-26T22:45:11.650Z,43.47
2022-10-26T22:47:56.393Z,43.36
2022-10-26T22:50:41.170Z,43.29
2022-10-26T22:53:26.014Z,43.44
2022-10-26T22:56:10.793Z,43.67
2022-10-26T22:58:55.517Z,43.37
2022-10-26T23:01:40.437Z,43.23
2022-10-26T23:04:25.644Z,43.29
2022-10-26T23:07:10.377Z,42.84
2022-10-26T23:09:55.292Z,42.91
2022-10-26T23:12:39.965Z,43.65
2022-10-26T23:15:24.608Z,43.39
2022-10-26T23:18:09.371Z,43.63
2022-10-26T23:20:54.355Z,44.26
2022-10-26T23:23:39.135Z,44.18
2022-10-26T23:26:23.952Z,44.02
2022-10-26T23:29:08.709Z,43.91
2022-10-26T23:31:53.541Z,44.08
2022-10-26T23:34:38.198Z,43.36
2022-10-26T23:37:22.935Z,43.78
2022-10-26T23:40:07.698Z,43.63
2022-10-26T23:42:52.653Z,43.64
2022-10-26T23:45:37.713Z,43.27
2022-10-26T23:48:22.527Z,43.78
2022-10-26T23:51:07.295Z,43.13
2022-10-26T23:53:52.020Z,41.73
2022-10-26T23:56:36.783Z,42.01
2022-10-26T23:59:21.635Z,41.82
